sensor_id;sensor_type;location;lat;lon;timestamp;temperature;humidity
16625;DHT22;8426;48.496;9.098;2023-09-19T06:52:40;16.30;99.90
16625;DHT22;8426;48.496;9.098;2023-09-19T06:57:53;17.00;99.90
16625;DHT22;8426;48.496;9.098;2023-09-19T07:02:57;18.70;99.90
16625;DHT22;8426;48.496;9.098;2023-09-19T07:08:05;18.40;99.90
16625;DHT22;8426;48.496;9.098;2023-09-19T07:13:09;18.60;99.90
16625;DHT22;8426;48.496;9.098;2023-09-19T07:18:14;19.00;99.90
16625;DHT22;8426;48.496;9.098;2023-09-19T07:23:31;19.20;99.90
16625;DHT22;8426;48.496;9.098;2023-09-19T07:28:44;19.80;99.90
16625;DHT22;8426;48.496;9.098;2023-09-19T07:33:51;20.00;99.90
16625;DHT22;8426;48.496;9.098;2023-09-19T07:38:56;20.00;99.90
16625;DHT22;8426;48.496;9.098;2023-09-19T07:44:28;20.20;99.90
16625;DHT22;8426;48.496;9.098;2023-09-19T07:49:31;21.00;99.90
16625;DHT22;8426;48.496;9.098;2023-09-19T07:54:36;21.40;99.90
16625;DHT22;8426;48.496;9.098;2023-09-19T07:59:48;21.10;99.90
16625;DHT22;8426;48.496;9.098;2023-09-19T08:04:52;20.20;99.90
16625;DHT22;8426;48.496;9.098;2023-09-19T08:09:57;19.80;99.90
16625;DHT22;8426;48.496;9.098;2023-09-19T08:15:02;19.30;99.90
16625;DHT22;8426;48.496;9.098;2023-09-19T08:20:09;18.90;99.90
16625;DHT22;8426;48.496;9.098;2023-09-19T08:25:19;19.30;99.90
16625;DHT22;8426;48.496;9.098;2023-09-19T08:30:25;19.30;99.90
16625;DHT22;8426;48.496;9.098;2023-09-19T08:35:32;19.50;99.90
16625;DHT22;8426;48.496;9.098;2023-09-19T08:40:38;20.30;99.90
16625;DHT22;8426;48.496;9.098;2023-09-19T08:45:48;22.40;99.90
16625;DHT22;8426;48.496;9.098;2023-09-19T08:50:55;22.80;99.90
16625;DHT22;8426;48.496;9.098;2023-09-19T08:56:11;24.10;99.90
16625;DHT22;8426;48.496;9.098;2023-09-19T09:01:17;25.80;99.90
16625;DHT22;8426;48.496;9.098;2023-09-19T09:06:26;25.90;99.90
16625;DHT22;8426;48.496;9.098;2023-09-19T09:11:34;25.50;99.90
16625;DHT22;8426;48.496;9.098;2023-09-19T09:16:45;24.60;99.90
16625;DHT22;8426;48.496;9.098;2023-09-19T09:21:52;24.90;99.90
16625;DHT22;8426;48.496;9.098;2023-09-19T09:27:03;25.00;99.90
16625;DHT22;8426;48.496;9.098;2023-09-19T09:32:21;24.80;99.90
16625;DHT22;8426;48.496;9.098;2023-09-19T09:37:26;23.50;99.90
16625;DHT22;8426;48.496;9.098;2023-09-19T09:42:36;22.60;99.90
16625;DHT22;8426;48.496;9.098;2023-09-19T09:47:42;23.10;99.90
16625;DHT22;8426;48.496;9.098;2023-09-19T09:52:52;22.60;99.90
16625;DHT22;8426;48.496;9.098;2023-09-19T09:58:18;21.40;99.90
16625;DHT22;8426;48.496;9.098;2023-09-19T10:03:34;22.10;99.90
16625;DHT22;8426;48.496;9.098;2023-09-19T10:08:57;22.90;99.90
16625;DHT22;8426;48.496;9.098;2023-09-19T10:14:09;23.50;99.90
16625;DHT22;8426;48.496;9.098;2023-09-19T10:19:23;23.10;99.90
16625;DHT22;8426;48.496;9.098;2023-09-19T10:24:33;22.90;99.90
16625;DHT22;8426;48.496;9.098;2023-09-19T10:29:57;22.80;99.90
16625;DHT22;8426;48.496;9.098;2023-09-19T10:35:02;23.10;99.90
16625;DHT22;8426;48.496;9.098;2023-09-19T10:40:11;23.00;99.90
16625;DHT22;8426;48.496;9.098;2023-09-19T10:45:17;23.50;99.90
16625;DHT22;8426;48.496;9.098;2023-09-19T10:50:23;23.90;99.90
16625;DHT22;8426;48.496;9.098;2023-09-19T10:55:28;23.20;99.90
16625;DHT22;8426;48.496;9.098;2023-09-19T11:00:50;23.60;99.90
16625;DHT22;8426;48.496;9.098;2023-09-19T11:06:08;23.50;99.90
16625;DHT22;8426;48.496;9.098;2023-09-19T11:11:44;22.80;99.90
16625;DHT22;8426;48.496;9.098;2023-09-19T11:23:20;21.50;99.90
16625;DHT22;8426;48.496;9.098;2023-09-19T11:28:35;21.30;99.90
16625;DHT22;8426;48.496;9.098;2023-09-19T11:33:47;22.10;99.90
16625;DHT22;8426;48.496;9.098;2023-09-19T11:38:59;22.60;99.90
16625;DHT22;8426;48.496;9.098;2023-09-19T11:44:33;22.80;99.90
16625;DHT22;8426;48.496;9.098;2023-09-19T11:49:40;23.40;99.90
16625;DHT22;8426;48.496;9.098;2023-09-19T11:54:54;23.60;99.90
16625;DHT22;8426;48.496;9.098;2023-09-19T11:59:59;23.10;99.90
16625;DHT22;8426;48.496;9.098;2023-09-19T12:05:13;22.90;99.90
16625;DHT22;8426;48.496;9.098;2023-09-19T12:10:32;23.10;99.90
16625;DHT22;8426;48.496;9.098;2023-09-19T12:15:47;23.40;99.90
16625;DHT22;8426;48.496;9.098;2023-09-19T12:21:01;23.30;99.90
16625;DHT22;8426;48.496;9.098;2023-09-19T12:26:10;23.20;99.90
16625;DHT22;8426;48.496;9.098;2023-09-19T12:31:25;22.90;99.90
16625;DHT22;8426;48.496;9.098;2023-09-19T12:36:29;22.90;99.90
16625;DHT22;8426;48.496;9.098;2023-09-19T12:41:37;22.90;99.90
16625;DHT22;8426;48.496;9.098;2023-09-19T12:46:42;23.00;99.90
16625;DHT22;8426;48.496;9.098;2023-09-19T12:51:47;23.30;99.90
16625;DHT22;8426;48.496;9.098;2023-09-19T12:56:53;23.40;99.90
16625;DHT22;8426;48.496;9.098;2023-09-19T13:02:03;23.60;99.90
16625;DHT22;8426;48.496;9.098;2023-09-19T13:07:08;23.30;99.90
16625;DHT22;8426;48.496;9.098;2023-09-19T13:12:38;22.60;99.90
16625;DHT22;8426;48.496;9.098;2023-09-19T13:17:49;23.20;99.90
16625;DHT22;8426;48.496;9.098;2023-09-19T13:22:56;23.00;99.90
16625;DHT22;8426;48.496;9.098;2023-09-19T13:28:05;23.20;99.90
16625;DHT22;8426;48.496;9.098;2023-09-19T13:33:10;23.00;99.90
16625;DHT22;8426;48.496;9.098;2023-09-19T13:38:17;23.10;99.90
16625;DHT22;8426;48.496;9.098;2023-09-19T13:43:34;23.00;99.90
16625;DHT22;8426;48.496;9.098;2023-09-19T13:48:38;23.10;99.90
16625;DHT22;8426;48.496;9.098;2023-09-19T13:53:44;22.80;99.90
16625;DHT22;8426;48.496;9.098;2023-09-19T13:58:58;22.70;99.90
16625;DHT22;8426;48.496;9.098;2023-09-19T14:04:10;22.70;99.90
16625;DHT22;8426;48.496;9.098;2023-09-19T14:09:19;22.60;99.90
16625;DHT22;8426;48.496;9.098;2023-09-19T14:14:24;22.40;99.90
16625;DHT22;8426;48.496;9.098;2023-09-19T14:19:27;22.40;99.90
16625;DHT22;8426;48.496;9.098;2023-09-19T14:24:32;22.30;99.90
16625;DHT22;8426;48.496;9.098;2023-09-19T14:29:37;22.40;99.90
16625;DHT22;8426;48.496;9.098;2023-09-19T14:34:41;22.40;99.90
16625;DHT22;8426;48.496;9.098;2023-09-19T14:39:49;22.20;99.90
16625;DHT22;8426;48.496;9.098;2023-09-19T14:44:53;22.00;99.90
16625;DHT22;8426;48.496;9.098;2023-09-19T14:49:57;21.70;99.90
16625;DHT22;8426;48.496;9.098;2023-09-19T14:55:03;21.60;99.90
16625;DHT22;8426;48.496;9.098;2023-09-19T15:00:11;21.70;99.90
16625;DHT22;8426;48.496;9.098;2023-09-19T15:05:22;21.80;99.90
16625;DHT22;8426;48.496;9.098;2023-09-19T15:10:26;21.80;99.90
16625;DHT22;8426;48.496;9.098;2023-09-19T15:15:33;21.80;99.90
16625;DHT22;8426;48.496;9.098;2023-09-19T15:20:43;21.80;99.90
16625;DHT22;8426;48.496;9.098;2023-09-19T15:25:48;21.80;99.90
16625;DHT22;8426;48.496;9.098;2023-09-19T15:30:59;21.70;99.90
16625;DHT22;8426;48.496;9.098;2023-09-19T15:36:04;21.60;99.90
16625;DHT22;8426;48.496;9.098;2023-09-19T15:41:12;21.40;99.90
16625;DHT22;8426;48.496;9.098;2023-09-19T15:46:20;21.30;99.90
16625;DHT22;8426;48.496;9.098;2023-09-19T15:51:27;21.10;99.90
16625;DHT22;8426;48.496;9.098;2023-09-19T15:56:33;21.00;99.90
16625;DHT22;8426;48.496;9.098;2023-09-19T16:01:39;20.80;99.90
16625;DHT22;8426;48.496;9.098;2023-09-19T16:06:45;20.70;99.90
16625;DHT22;8426;48.496;9.098;2023-09-19T16:11:49;20.60;99.90
16625;DHT22;8426;48.496;9.098;2023-09-19T16:16:55;20.50;99.90
16625;DHT22;8426;48.496;9.098;2023-09-19T16:22:03;20.50;99.90
16625;DHT22;8426;48.496;9.098;2023-09-19T16:27:10;20.50;99.90
16625;DHT22;8426;48.496;9.098;2023-09-19T16:32:16;20.30;99.90
16625;DHT22;8426;48.496;9.098;2023-09-19T16:37:21;20.00;99.90
16625;DHT22;8426;48.496;9.098;2023-09-19T16:42:24;19.80;99.90
16625;DHT22;8426;48.496;9.098;2023-09-19T16:47:32;19.50;99.90
16625;DHT22;8426;48.496;9.098;2023-09-19T16:52:38;19.30;99.90
16625;DHT22;8426;48.496;9.098;2023-09-19T16:57:41;18.90;99.90
16625;DHT22;8426;48.496;9.098;2023-09-19T17:02:49;18.50;99.90
16625;DHT22;8426;48.496;9.098;2023-09-19T17:07:57;18.10;99.90
16625;DHT22;8426;48.496;9.098;2023-09-19T17:13:03;17.80;99.90
16625;DHT22;8426;48.496;9.098;2023-09-19T17:18:10;17.70;99.90
16625;DHT22;8426;48.496;9.098;2023-09-19T17:23:14;17.60;99.90
16625;DHT22;8426;48.496;9.098;2023-09-19T17:28:17;17.60;99.90
16625;DHT22;8426;48.496;9.098;2023-09-19T17:33:22;17.50;99.90
16625;DHT22;8426;48.496;9.098;2023-09-19T17:38:25;17.40;99.90
16625;DHT22;8426;48.496;9.098;2023-09-19T17:43:31;17.10;99.90
16625;DHT22;8426;48.496;9.098;2023-09-19T17:48:37;16.80;99.90
16625;DHT22;8426;48.496;9.098;2023-09-19T17:53:46;16.70;99.90
16625;DHT22;8426;48.496;9.098;2023-09-19T17:58:50;16.50;99.90
16625;DHT22;8426;48.496;9.098;2023-09-19T18:03:58;16.20;99.90
16625;DHT22;8426;48.496;9.098;2023-09-19T18:09:04;16.00;99.90
16625;DHT22;8426;48.496;9.098;2023-09-19T18:14:09;15.90;99.90
16625;DHT22;8426;48.496;9.098;2023-09-19T18:19:15;15.90;99.90
16625;DHT22;8426;48.496;9.098;2023-09-19T18:24:20;15.90;99.90
16625;DHT22;8426;48.496;9.098;2023-09-19T18:29:24;15.70;99.90
16625;DHT22;8426;48.496;9.098;2023-09-19T18:34:29;15.60;99.90
16625;DHT22;8426;48.496;9.098;2023-09-19T18:39:33;15.50;99.90
16625;DHT22;8426;48.496;9.098;2023-09-19T18:44:38;15.50;99.90
16625;DHT22;8426;48.496;9.098;2023-09-19T18:49:42;15.40;99.90
16625;DHT22;8426;48.496;9.098;2023-09-19T18:54:47;15.30;99.90
16625;DHT22;8426;48.496;9.098;2023-09-19T18:59:51;15.20;99.90
16625;DHT22;8426;48.496;9.098;2023-09-19T19:04:56;15.00;99.90
16625;DHT22;8426;48.496;9.098;2023-09-19T19:10:00;14.90;99.90
16625;DHT22;8426;48.496;9.098;2023-09-19T19:15:05;14.80;99.90
16625;DHT22;8426;48.496;9.098;2023-09-19T19:20:11;14.70;99.90
16625;DHT22;8426;48.496;9.098;2023-09-19T19:25:16;14.70;99.90
16625;DHT22;8426;48.496;9.098;2023-09-19T19:30:20;14.60;99.90
16625;DHT22;8426;48.496;9.098;2023-09-19T19:35:26;14.50;99.90
16625;DHT22;8426;48.496;9.098;2023-09-19T19:40:33;14.40;99.90
16625;DHT22;8426;48.496;9.098;2023-09-19T19:45:39;14.30;99.90
16625;DHT22;8426;48.496;9.098;2023-09-19T19:50:51;14.40;99.90
16625;DHT22;8426;48.496;9.098;2023-09-19T19:56:14;14.40;99.90
16625;DHT22;8426;48.496;9.098;2023-09-19T20:01:23;14.40;99.90
16625;DHT22;8426;48.496;9.098;2023-09-19T20:06:28;14.30;99.90
16625;DHT22;8426;48.496;9.098;2023-09-19T20:11:32;14.20;99.90
16625;DHT22;8426;48.496;9.098;2023-09-19T20:16:35;14.00;99.90
16625;DHT22;8426;48.496;9.098;2023-09-19T20:21:41;13.90;99.90
16625;DHT22;8426;48.496;9.098;2023-09-19T20:26:53;13.80;99.90
16625;DHT22;8426;48.496;9.098;2023-09-19T20:31:59;13.70;99.90
16625;DHT22;8426;48.496;9.098;2023-09-19T20:37:04;13.60;99.90
16625;DHT22;8426;48.496;9.098;2023-09-19T20:42:11;13.40;99.90
16625;DHT22;8426;48.496;9.098;2023-09-19T20:47:16;13.30;99.90
16625;DHT22;8426;48.496;9.098;2023-09-19T20:52:21;13.20;99.90
16625;DHT22;8426;48.496;9.098;2023-09-19T20:57:32;13.00;99.90
16625;DHT22;8426;48.496;9.098;2023-09-19T21:02:36;12.90;99.90
16625;DHT22;8426;48.496;9.098;2023-09-19T21:07:43;12.90;99.90
16625;DHT22;8426;48.496;9.098;2023-09-19T21:12:48;12.80;99.90
16625;DHT22;8426;48.496;9.098;2023-09-19T21:17:51;12.80;99.90
16625;DHT22;8426;48.496;9.098;2023-09-19T21:22:58;12.80;99.90
16625;DHT22;8426;48.496;9.098;2023-09-19T21:28:12;12.70;99.90
16625;DHT22;8426;48.496;9.098;2023-09-19T21:33:16;12.60;99.90
16625;DHT22;8426;48.496;9.098;2023-09-19T21:38:25;12.60;99.90
16625;DHT22;8426;48.496;9.098;2023-09-19T21:43:30;12.70;99.90
16625;DHT22;8426;48.496;9.098;2023-09-19T21:48:37;12.80;99.90
16625;DHT22;8426;48.496;9.098;2023-09-19T21:53:43;13.20;99.90
16625;DHT22;8426;48.496;9.098;2023-09-19T21:58:47;13.50;99.90
16625;DHT22;8426;48.496;9.098;2023-09-19T22:03:51;13.70;99.90
16625;DHT22;8426;48.496;9.098;2023-09-19T22:08:57;13.90;99.90
16625;DHT22;8426;48.496;9.098;2023-09-19T22:14:03;14.00;99.90
16625;DHT22;8426;48.496;9.098;2023-09-19T22:19:06;14.10;99.90
16625;DHT22;8426;48.496;9.098;2023-09-19T22:24:11;14.10;99.90
16625;DHT22;8426;48.496;9.098;2023-09-19T22:29:28;14.00;99.90
16625;DHT22;8426;48.496;9.098;2023-09-19T22:34:32;14.00;99.90
16625;DHT22;8426;48.496;9.098;2023-09-19T22:39:36;13.80;99.90
16625;DHT22;8426;48.496;9.098;2023-09-19T22:44:40;13.60;99.90
16625;DHT22;8426;48.496;9.098;2023-09-19T22:49:46;13.50;99.90
16625;DHT22;8426;48.496;9.098;2023-09-19T22:54:51;13.50;99.90
16625;DHT22;8426;48.496;9.098;2023-09-19T22:59:57;13.50;99.90
16625;DHT22;8426;48.496;9.098;2023-09-19T23:05:02;13.30;99.90
16625;DHT22;8426;48.496;9.098;2023-09-19T23:10:08;13.40;99.90
16625;DHT22;8426;48.496;9.098;2023-09-19T23:15:12;13.20;99.90
16625;DHT22;8426;48.496;9.098;2023-09-19T23:20:20;12.90;99.90
16625;DHT22;8426;48.496;9.098;2023-09-19T23:25:28;12.70;99.90
16625;DHT22;8426;48.496;9.098;2023-09-19T23:30:39;12.60;99.90
16625;DHT22;8426;48.496;9.098;2023-09-19T23:35:43;12.40;99.90
16625;DHT22;8426;48.496;9.098;2023-09-19T23:40:49;12.30;99.90
16625;DHT22;8426;48.496;9.098;2023-09-19T23:45:53;12.20;99.90
16625;DHT22;8426;48.496;9.098;2023-09-19T23:50:56;12.20;99.90
16625;DHT22;8426;48.496;9.098;2023-09-19T23:56:02;12.20;99.90
